createdAt,value
2024-02-11T00:00:53.173Z,74.11
2024-02-11T00:01:53.299Z,74.11
2024-02-11T00:02:53.332Z,74.11
2024-02-11T00:03:53.465Z,74.11
2024-02-11T00:04:53.529Z,74.22
2024-02-11T00:05:53.609Z,74.11
2024-02-11T00:06:53.704Z,74.02
2024-02-11T00:07:53.808Z,74.11
2024-02-11T00:08:53.901Z,74.02
2024-02-11T00:09:53.921Z,74.11
2024-02-11T00:10:54.092Z,74.22
2024-02-11T00:11:54.083Z,74.22
2024-02-11T00:12:54.152Z,74.11
2024-02-11T00:13:54.302Z,74.26
2024-02-11T00:14:54.335Z,74.35
2024-02-11T00:15:54.455Z,74.35
2024-02-11T00:16:54.528Z,74.46
2024-02-11T00:17:54.618Z,74.46
2024-02-11T00:18:54.784Z,74.56
2024-02-11T00:19:54.828Z,74.56
2024-02-11T00:20:54.860Z,74.56
2024-02-11T00:21:54.945Z,74.66
2024-02-11T00:22:55.061Z,74.76
2024-02-11T00:23:55.169Z,74.87
2024-02-11T00:24:55.171Z,74.97
2024-02-11T00:25:55.315Z,75.27
2024-02-11T00:26:55.299Z,75.17
2024-02-11T00:27:55.409Z,75.27
2024-02-11T00:28:55.528Z,75.27
2024-02-11T00:29:55.587Z,75.48
2024-02-11T00:30:55.660Z,75.48
2024-02-11T00:31:55.813Z,75.48
2024-02-11T00:32:55.889Z,75.48
2024-02-11T00:33:56.024Z,75.48
2024-02-11T00:34:56.035Z,75.48
2024-02-11T00:35:56.117Z,75.68
2024-02-11T00:36:56.193Z,75.89
2024-02-11T00:37:56.327Z,75.89
2024-02-11T00:38:56.407Z,75.89
2024-02-11T00:39:56.425Z,76.09
2024-02-11T00:40:56.537Z,76.20
2024-02-11T00:41:56.594Z,76.30
2024-02-11T00:42:56.672Z,76.30
2024-02-11T00:43:56.906Z,76.20
2024-02-11T00:44:56.818Z,76.20
2024-02-11T00:45:56.878Z,76.20
2024-02-11T00:46:56.985Z,76.30
2024-02-11T00:47:57.130Z,76.40
2024-02-11T00:48:57.234Z,76.30
2024-02-11T00:49:57.186Z,76.30
2024-02-11T00:50:57.266Z,76.61
2024-02-11T00:51:57.340Z,76.61
2024-02-11T00:52:57.471Z,76.61
2024-02-11T00:53:57.607Z,76.64
2024-02-11T00:54:57.637Z,76.61
2024-02-11T00:55:57.705Z,76.54
2024-02-11T00:56:57.751Z,76.71
2024-02-11T00:57:57.810Z,76.81
2024-02-11T00:58:57.933Z,76.75
2024-02-11T00:59:57.998Z,76.71
2024-02-11T01:00:58.103Z,76.71
2024-02-11T01:01:58.169Z,76.71
2024-02-11T01:02:58.229Z,76.71
2024-02-11T01:03:58.480Z,76.71
2024-02-11T01:04:58.489Z,76.71
2024-02-11T01:05:58.547Z,76.71
2024-02-11T01:06:58.642Z,76.61
2024-02-11T01:07:58.710Z,76.71
2024-02-11T01:08:58.791Z,76.71
2024-02-11T01:09:58.835Z,76.71
2024-02-11T01:10:58.904Z,76.81
2024-02-11T01:11:59.022Z,76.81
2024-02-11T01:12:59.052Z,76.91
2024-02-11T01:13:59.182Z,76.91
2024-02-11T01:14:59.228Z,76.91
2024-02-11T01:15:59.318Z,76.91
2024-02-11T01:16:59.392Z,76.81
2024-02-11T01:17:59.515Z,76.71
2024-02-11T01:18:59.684Z,76.71
2024-02-11T01:19:59.663Z,76.61
2024-02-11T01:20:59.746Z,76.61
2024-02-11T01:21:59.859Z,76.61
2024-02-11T01:22:59.936Z,76.50
2024-02-11T01:23:59.991Z,76.40
2024-02-11T01:25:00.023Z,76.30
2024-02-11T01:26:00.184Z,76.20
2024-02-11T01:27:00.215Z,76.20
2024-02-11T01:28:00.297Z,76.20
2024-02-11T01:29:00.450Z,76.20
2024-02-11T01:30:00.535Z,76.09
2024-02-11T01:31:00.578Z,75.99
2024-02-11T01:32:00.720Z,75.99
2024-02-11T01:33:00.849Z,75.89
2024-02-11T01:34:00.940Z,75.79
2024-02-11T01:35:01.011Z,75.89
2024-02-11T01:36:00.983Z,75.89
2024-02-11T01:37:01.031Z,75.79
2024-02-11T01:38:01.156Z,75.79
2024-02-11T01:39:01.249Z,75.89
2024-02-11T01:40:01.308Z,75.99
2024-02-11T01:41:01.434Z,75.99
2024-02-11T01:42:01.477Z,75.99
2024-02-11T01:43:01.608Z,75.89
2024-02-11T01:44:01.786Z,75.99
2024-02-11T01:45:01.727Z,76.20
2024-02-11T01:46:01.778Z,76.30
2024-02-11T01:47:01.886Z,76.30
2024-02-11T01:48:02.016Z,76.40
2024-02-11T01:49:02.088Z,76.50
2024-02-11T01:50:02.099Z,76.61
2024-02-11T01:51:02.176Z,76.61
2024-02-11T01:52:02.273Z,76.61
2024-02-11T01:53:02.370Z,76.71
2024-02-11T01:54:02.426Z,76.61
2024-02-11T01:55:02.488Z,76.71
2024-02-11T01:56:02.673Z,76.71
2024-02-11T01:57:02.621Z,76.81
2024-02-11T01:58:02.718Z,76.81
2024-02-11T01:59:02.858Z,76.81
2024-02-11T02:00:02.928Z,76.91
2024-02-11T02:01:02.976Z,76.81
2024-02-11T02:02:03.089Z,76.91
2024-02-11T02:03:03.110Z,77.12
2024-02-11T02:04:03.287Z,77.42
2024-02-11T02:05:03.637Z,77.53
2024-02-11T02:06:03.448Z,77.46
2024-02-11T02:07:03.439Z,77.36
2024-02-11T02:08:03.532Z,76.75
2024-02-11T02:09:03.617Z,75.93
2024-02-11T02:10:03.730Z,75.96
2024-02-11T02:11:03.827Z,75.86
2024-02-11T02:12:03.869Z,75.96
2024-02-11T02:13:03.927Z,75.76
2024-02-11T02:14:04.044Z,75.69
2024-02-11T02:15:04.110Z,75.38
2024-02-11T02:16:04.187Z,75.28
2024-02-11T02:17:04.355Z,75.01
2024-02-11T02:18:04.451Z,74.80
2024-02-11T02:19:04.576Z,74.90
2024-02-11T02:20:04.564Z,74.94
2024-02-11T02:21:04.598Z,74.94
2024-02-11T02:22:04.699Z,74.94
2024-02-11T02:23:04.816Z,74.66
2024-02-11T02:24:04.887Z,74.87
2024-02-11T02:25:04.961Z,75.08
2024-02-11T02:26:05.124Z,75.21
2024-02-11T02:27:05.109Z,75.42
2024-02-11T02:28:05.195Z,75.52
2024-02-11T02:29:05.451Z,75.93
2024-02-11T02:30:05.432Z,76.07
2024-02-11T02:31:05.436Z,76.28
2024-02-11T02:32:05.590Z,76.38
2024-02-11T02:33:05.863Z,76.28
2024-02-11T02:34:05.734Z,76.38
2024-02-11T02:35:05.807Z,76.48
2024-02-11T02:36:05.866Z,76.48
2024-02-11T02:37:05.911Z,76.48
2024-02-11T02:38:06.058Z,76.58
2024-02-11T02:39:06.160Z,76.48
2024-02-11T02:40:06.149Z,76.58
2024-02-11T02:41:06.285Z,76.48
2024-02-11T02:42:06.321Z,76.38
2024-02-11T02:43:06.374Z,76.38
2024-02-11T02:44:06.561Z,76.38
2024-02-11T02:45:06.540Z,76.28
2024-02-11T02:46:06.669Z,76.28
2024-02-11T02:47:06.882Z,76.28
2024-02-11T02:48:06.853Z,76.17
2024-02-11T02:49:07.004Z,76.17
2024-02-11T02:50:07.040Z,76.07
2024-02-11T02:51:07.074Z,76.07
2024-02-11T02:52:07.143Z,76.07
2024-02-11T02:53:07.289Z,76.07
2024-02-11T02:54:07.380Z,76.07
2024-02-11T02:55:07.410Z,75.87
2024-02-11T02:56:07.633Z,75.87
2024-02-11T02:57:07.586Z,75.76
2024-02-11T02:58:07.647Z,75.76
2024-02-11T02:59:07.877Z,75.56
2024-02-11T03:00:07.862Z,75.56
2024-02-11T03:01:08.004Z,75.56
2024-02-11T03:02:08.068Z,75.56
2024-02-11T03:03:08.239Z,75.45
2024-02-11T03:04:08.269Z,75.35
2024-02-11T03:05:08.361Z,75.25
2024-02-11T03:06:08.422Z,75.25
2024-02-11T03:07:08.435Z,75.25
2024-02-11T03:08:08.630Z,75.15
2024-02-11T03:09:08.671Z,74.94
2024-02-11T03:10:08.646Z,74.53
2024-02-11T03:11:08.761Z,74.53
2024-02-11T03:12:08.823Z,74.53
2024-02-11T03:13:08.890Z,74.53
2024-02-11T03:14:09.036Z,74.63
2024-02-11T03:15:09.042Z,74.74
2024-02-11T03:16:09.136Z,74.74
2024-02-11T03:17:09.222Z,74.63
2024-02-11T03:18:09.403Z,74.63
2024-02-11T03:19:09.493Z,74.63
2024-02-11T03:20:09.530Z,74.63
2024-02-11T03:21:09.571Z,74.63
2024-02-11T03:22:09.637Z,74.53
2024-02-11T03:23:09.745Z,74.53
2024-02-11T03:24:09.835Z,74.43
2024-02-11T03:25:09.870Z,74.53
2024-02-11T03:26:10.008Z,74.53
2024-02-11T03:27:10.034Z,74.53
2024-02-11T03:28:10.086Z,74.43
2024-02-11T03:29:10.386Z,74.43
2024-02-11T03:30:10.306Z,74.32
2024-02-11T03:31:10.406Z,74.12
2024-02-11T03:32:10.453Z,74.12
2024-02-11T03:33:10.678Z,74.02
2024-02-11T03:34:10.803Z,74.02
2024-02-11T03:35:10.767Z,74.02
2024-02-11T03:36:10.779Z,74.12
2024-02-11T03:37:10.866Z,74.12
2024-02-11T03:38:10.988Z,73.81
2024-02-11T03:39:11.084Z,73.64
2024-02-11T03:40:11.121Z,73.74
2024-02-11T03:41:11.250Z,73.95
2024-02-11T03:42:11.292Z,73.95
2024-02-11T03:43:11.383Z,74.05
2024-02-11T03:44:11.541Z,74.05
2024-02-11T03:45:11.585Z,73.88
2024-02-11T03:46:11.616Z,73.88
2024-02-11T03:47:11.759Z,73.98
2024-02-11T03:48:11.863Z,73.98
2024-02-11T03:49:12.034Z,74.02
2024-02-11T03:50:12.194Z,74.22
2024-02-11T03:51:12.032Z,74.22
2024-02-11T03:52:12.094Z,74.02
2024-02-11T03:53:12.361Z,73.91
2024-02-11T03:54:12.337Z,74.15
2024-02-11T03:55:12.909Z,74.36
2024-02-11T03:56:12.483Z,74.46
2024-02-11T03:57:12.574Z,74.57
2024-02-11T03:58:12.634Z,74.77
2024-02-11T03:59:12.884Z,74.57
2024-02-11T04:00:12.784Z,74.60
2024-02-11T04:01:13.548Z,74.80
2024-02-11T04:02:13.015Z,74.91
2024-02-11T04:03:13.017Z,74.50
2024-02-11T04:04:13.150Z,74.40
2024-02-11T04:05:13.295Z,74.60
2024-02-11T04:06:13.350Z,74.80
2024-02-11T04:07:13.366Z,74.91
2024-02-11T04:08:13.704Z,75.05
2024-02-11T04:09:13.537Z,74.84
2024-02-11T04:10:13.585Z,74.84
2024-02-11T04:11:13.826Z,74.84
2024-02-11T04:12:13.768Z,74.74
2024-02-11T04:13:13.939Z,74.95
2024-02-11T04:14:13.960Z,74.95
2024-02-11T04:15:13.944Z,74.88
2024-02-11T04:16:14.026Z,74.98
2024-02-11T04:17:14.207Z,75.08
2024-02-11T04:18:14.261Z,75.29
2024-02-11T04:19:14.382Z,75.29
2024-02-11T04:20:14.411Z,75.29
2024-02-11T04:21:14.473Z,75.29
2024-02-11T04:22:14.572Z,75.18
2024-02-11T04:23:14.714Z,74.88
2024-02-11T04:24:14.741Z,74.67
2024-02-11T04:25:14.813Z,74.67
2024-02-11T04:26:14.887Z,74.80
2024-02-11T04:27:14.961Z,74.88
2024-02-11T04:28:15.048Z,75.08
2024-02-11T04:29:15.169Z,75.18
2024-02-11T04:30:15.245Z,74.98
2024-02-11T04:31:15.383Z,74.77
2024-02-11T04:32:15.567Z,74.50
2024-02-11T04:33:16.411Z,74.60
2024-02-11T04:34:15.643Z,74.71
2024-02-11T04:35:15.684Z,74.80
2024-02-11T04:36:15.772Z,74.91
2024-02-11T04:37:15.878Z,74.91
2024-02-11T04:38:16.330Z,74.80
2024-02-11T04:39:16.129Z,74.77
2024-02-11T04:40:16.063Z,74.60
2024-02-11T04:41:16.174Z,74.50
2024-02-11T04:42:16.236Z,74.29
2024-02-11T04:43:16.314Z,74.29
2024-02-11T04:44:16.495Z,74.19
2024-02-11T04:45:16.494Z,74.40
2024-02-11T04:46:16.545Z,74.71
2024-02-11T04:47:16.712Z,74.60
2024-02-11T04:48:16.793Z,74.29
2024-02-11T04:49:16.968Z,74.40
2024-02-11T04:50:16.997Z,74.29
2024-02-11T04:51:17.037Z,74.40
2024-02-11T04:52:17.042Z,74.60
2024-02-11T04:53:17.207Z,74.40
2024-02-11T04:54:17.271Z,74.50
2024-02-11T04:55:17.298Z,74.50
2024-02-11T04:56:17.395Z,74.50
2024-02-11T04:57:17.477Z,74.63
2024-02-11T04:58:18.731Z,74.53
2024-02-11T04:59:17.797Z,74.71
2024-02-11T05:00:17.725Z,74.71
2024-02-11T05:01:17.847Z,74.71
2024-02-11T05:02:17.965Z,74.60
2024-02-11T05:03:18.040Z,74.60
2024-02-11T05:04:18.106Z,74.60
2024-02-11T05:05:18.286Z,74.50
2024-02-11T05:06:18.334Z,74.50
2024-02-11T05:07:18.359Z,74.53
2024-02-11T05:08:18.933Z,74.63
2024-02-11T05:09:18.548Z,74.63
2024-02-11T05:10:18.581Z,74.63
2024-02-11T05:11:18.734Z,74.63
2024-02-11T05:12:18.757Z,74.74
2024-02-11T05:13:18.867Z,74.63
2024-02-11T05:14:18.953Z,74.95
2024-02-11T05:15:18.966Z,75.05
2024-02-11T05:16:19.034Z,74.84
2024-02-11T05:17:19.113Z,74.84
2024-02-11T05:18:19.296Z,75.18
2024-02-11T05:19:19.334Z,75.29
2024-02-11T05:20:19.440Z,75.15
2024-02-11T05:21:19.450Z,75.18
2024-02-11T05:22:19.527Z,75.29
2024-02-11T05:23:19.751Z,75.29
2024-02-11T05:24:19.681Z,75.39
2024-02-11T05:25:19.765Z,75.29
2024-02-11T05:26:19.818Z,75.49
2024-02-11T05:27:19.919Z,75.70
2024-02-11T05:28:19.991Z,75.91
2024-02-11T05:29:20.155Z,76.01
2024-02-11T05:30:20.115Z,76.12
2024-02-11T05:31:20.188Z,76.21
2024-02-11T05:32:20.335Z,76.32
2024-02-11T05:33:21.320Z,76.32
2024-02-11T05:34:20.409Z,76.42
2024-02-11T05:35:20.570Z,76.42
2024-02-11T05:36:20.571Z,76.53
2024-02-11T05:37:20.648Z,76.53
2024-02-11T05:38:20.831Z,76.53
2024-02-11T05:39:20.834Z,76.53
2024-02-11T05:40:20.952Z,76.63
2024-02-11T05:41:21.132Z,76.73
2024-02-11T05:42:21.100Z,76.73
2024-02-11T05:43:21.207Z,76.63
2024-02-11T05:44:21.272Z,76.73
2024-02-11T05:45:21.336Z,76.73
2024-02-11T05:46:21.419Z,76.73
2024-02-11T05:47:21.585Z,76.73
2024-02-11T05:48:21.679Z,76.53
2024-02-11T05:49:21.735Z,76.63
2024-02-11T05:50:21.883Z,76.63
2024-02-11T05:51:21.888Z,76.84
2024-02-11T05:52:22.008Z,76.84
2024-02-11T05:53:22.320Z,76.94
2024-02-11T05:54:22.131Z,77.04
2024-02-11T05:55:22.223Z,77.15
2024-02-11T05:56:22.341Z,77.25
2024-02-11T05:57:22.391Z,77.35
2024-02-11T05:58:22.494Z,77.39
2024-02-11T05:59:22.680Z,77.39
2024-02-11T06:00:22.659Z,77.39
2024-02-11T06:01:22.794Z,77.49
2024-02-11T06:02:22.947Z,77.59
2024-02-11T06:03:22.994Z,77.49
2024-02-11T06:04:23.033Z,77.59
2024-02-11T06:05:23.136Z,77.59
2024-02-11T06:06:23.214Z,77.59
2024-02-11T06:07:23.378Z,77.49
2024-02-11T06:08:23.411Z,77.49
2024-02-11T06:09:23.483Z,77.56
2024-02-11T06:10:23.570Z,77.66
2024-02-11T06:11:23.634Z,77.56
2024-02-11T06:12:23.656Z,77.59
2024-02-11T06:13:23.787Z,77.70
2024-02-11T06:14:23.870Z,77.59
2024-02-11T06:15:23.943Z,77.49
2024-02-11T06:16:23.996Z,77.59
2024-02-11T06:17:24.141Z,77.59
2024-02-11T06:18:24.209Z,77.49
2024-02-11T06:19:24.314Z,77.59
2024-02-11T06:20:24.355Z,77.59
2024-02-11T06:21:24.405Z,77.59
2024-02-11T06:22:24.478Z,77.59
2024-02-11T06:23:24.795Z,77.49
2024-02-11T06:24:24.658Z,77.39
2024-02-11T06:25:24.779Z,77.39
2024-02-11T06:26:24.855Z,77.39
2024-02-11T06:27:24.857Z,77.39
2024-02-11T06:28:24.931Z,77.49
2024-02-11T06:29:25.002Z,77.49
2024-02-11T06:30:25.115Z,77.49
2024-02-11T06:31:25.184Z,77.59
2024-02-11T06:32:25.378Z,77.49
2024-02-11T06:33:25.522Z,77.28
2024-02-11T06:34:26.994Z,77.39
2024-02-11T06:35:26.231Z,77.39
2024-02-11T06:36:25.622Z,77.49
2024-02-11T06:37:25.733Z,77.49
2024-02-11T06:38:25.879Z,77.59
2024-02-11T06:39:25.880Z,77.59
2024-02-11T06:40:25.954Z,77.59
2024-02-11T06:41:26.130Z,77.59
2024-02-11T06:42:26.111Z,77.39
2024-02-11T06:43:26.238Z,77.39
2024-02-11T06:44:26.364Z,77.39
2024-02-11T06:45:26.408Z,77.49
2024-02-11T06:46:26.509Z,77.39
2024-02-11T06:47:26.692Z,77.28
2024-02-11T06:48:26.767Z,77.28
2024-02-11T06:49:26.774Z,77.18
2024-02-11T06:50:26.971Z,77.28
2024-02-11T06:51:26.917Z,77.28
2024-02-11T06:52:26.992Z,77.28
2024-02-11T06:53:27.165Z,77.39
2024-02-11T06:54:29.125Z,77.39
2024-02-11T06:55:27.223Z,77.49
2024-02-11T06:56:27.306Z,77.49
2024-02-11T06:57:27.384Z,77.49
2024-02-11T06:58:27.510Z,77.49
2024-02-11T06:59:27.552Z,77.59
2024-02-11T07:00:27.664Z,77.59
2024-02-11T07:01:27.771Z,77.39
2024-02-11T07:02:29.496Z,77.28
2024-02-11T07:03:27.994Z,76.98
2024-02-11T07:04:27.926Z,77.08
2024-02-11T07:05:28.190Z,77.28
2024-02-11T07:06:28.143Z,77.28
2024-02-11T07:07:28.217Z,77.39
2024-02-11T07:08:28.350Z,77.39
2024-02-11T07:09:28.409Z,77.59
2024-02-11T07:10:28.416Z,77.49
2024-02-11T07:11:28.511Z,77.59
2024-02-11T07:12:28.559Z,77.70
2024-02-11T07:13:30.416Z,77.70
2024-02-11T07:14:28.728Z,77.80
2024-02-11T07:15:28.780Z,77.80
2024-02-11T07:16:28.873Z,77.70
2024-02-11T07:17:28.978Z,77.70
2024-02-11T07:18:29.114Z,77.59
2024-02-11T07:19:29.060Z,77.70
2024-02-11T07:20:29.243Z,77.70
2024-02-11T07:21:30.457Z,77.80
2024-02-11T07:22:31.007Z,77.80
2024-02-11T07:23:29.509Z,77.80
2024-02-11T07:24:29.566Z,77.80
2024-02-11T07:25:29.586Z,77.80
2024-02-11T07:26:29.732Z,77.91
2024-02-11T07:27:29.861Z,77.91
2024-02-11T07:28:29.893Z,77.91
2024-02-11T07:29:29.953Z,77.91
2024-02-11T07:30:30.031Z,77.91
2024-02-11T07:31:30.058Z,77.91
2024-02-11T07:32:30.349Z,77.91
2024-02-11T07:33:30.285Z,77.91
2024-02-11T07:34:30.468Z,77.70
2024-02-11T07:35:30.451Z,77.70
2024-02-11T07:36:33.685Z,77.80
2024-02-11T07:37:30.758Z,77.80
2024-02-11T07:38:30.711Z,77.80
2024-02-11T07:39:30.722Z,77.80
2024-02-11T07:40:30.828Z,77.91
2024-02-11T07:41:30.900Z,77.80
2024-02-11T07:42:30.978Z,77.80
2024-02-11T07:43:31.090Z,77.80
2024-02-11T07:44:31.147Z,77.91
2024-02-11T07:45:31.258Z,77.91
2024-02-11T07:46:31.301Z,77.59
2024-02-11T07:47:31.455Z,77.59
2024-02-11T07:48:31.619Z,77.59
2024-02-11T07:49:31.545Z,77.80
2024-02-11T07:50:31.659Z,77.80
2024-02-11T07:51:31.730Z,77.91
2024-02-11T07:52:31.859Z,78.01
2024-02-11T07:53:31.885Z,77.91
2024-02-11T07:54:31.956Z,78.01
2024-02-11T07:55:32.008Z,77.91
2024-02-11T07:56:32.086Z,78.01
2024-02-11T07:57:32.139Z,78.11
2024-02-11T07:58:32.259Z,78.11
2024-02-11T07:59:32.268Z,78.01
2024-02-11T08:00:32.580Z,78.11
2024-02-11T08:01:32.507Z,78.11
2024-02-11T08:02:32.650Z,78.11
2024-02-11T08:03:32.698Z,78.08
2024-02-11T08:04:32.685Z,78.11
2024-02-11T08:05:32.814Z,78.11
2024-02-11T08:06:32.909Z,78.01
2024-02-11T08:07:32.933Z,78.01
2024-02-11T08:08:33.061Z,78.01
2024-02-11T08:09:33.113Z,78.01
2024-02-11T08:10:33.211Z,77.91
2024-02-11T08:11:33.301Z,77.76
2024-02-11T08:12:33.371Z,77.76
2024-02-11T08:13:33.473Z,77.87
2024-02-11T08:14:33.593Z,77.97
2024-02-11T08:15:33.565Z,77.97
2024-02-11T08:16:33.637Z,77.87
2024-02-11T08:17:33.810Z,77.76
2024-02-11T08:18:33.981Z,77.76
2024-02-11T08:19:34.015Z,77.87
2024-02-11T08:20:34.082Z,77.97
2024-02-11T08:21:34.111Z,78.08
2024-02-11T08:22:34.167Z,77.97
2024-02-11T08:23:34.302Z,77.97
2024-02-11T08:24:34.466Z,77.97
2024-02-11T08:25:34.410Z,77.87
2024-02-11T08:26:34.473Z,77.76
2024-02-11T08:27:34.560Z,77.87
2024-02-11T08:28:34.677Z,77.87
2024-02-11T08:29:34.707Z,77.97
2024-02-11T08:30:34.806Z,77.87
2024-02-11T08:31:35.003Z,77.97
2024-02-11T08:32:35.087Z,77.97
2024-02-11T08:33:35.227Z,77.97
2024-02-11T08:34:35.191Z,77.97
2024-02-11T08:35:35.357Z,77.87
2024-02-11T08:36:35.330Z,77.76
2024-02-11T08:37:35.418Z,77.56
2024-02-11T08:38:35.567Z,77.45
2024-02-11T08:39:35.624Z,77.56
2024-02-11T08:40:35.655Z,77.66
2024-02-11T08:41:35.724Z,77.76
2024-02-11T08:42:35.789Z,77.76
2024-02-11T08:43:35.909Z,77.66
2024-02-11T08:44:36.027Z,77.56
2024-02-11T08:45:36.028Z,77.66
2024-02-11T08:46:36.178Z,77.56
2024-02-11T08:47:36.346Z,77.45
2024-02-11T08:48:36.441Z,77.45
2024-02-11T08:49:36.391Z,77.56
2024-02-11T08:50:36.663Z,77.66
2024-02-11T08:51:36.516Z,77.66
2024-02-11T08:52:36.645Z,77.66
2024-02-11T08:53:36.691Z,77.66
2024-02-11T08:54:36.758Z,77.66
2024-02-11T08:55:36.823Z,77.87
2024-02-11T08:56:36.967Z,77.87
2024-02-11T08:57:36.995Z,77.83
2024-02-11T08:58:37.182Z,77.73
2024-02-11T08:59:37.190Z,77.83
2024-02-11T09:00:37.297Z,77.94
2024-02-11T09:01:37.373Z,77.83
2024-02-11T09:02:37.448Z,77.62
2024-02-11T09:03:37.564Z,77.62
2024-02-11T09:04:37.673Z,77.62
2024-02-11T09:05:37.762Z,77.62
2024-02-11T09:06:37.825Z,77.62
2024-02-11T09:07:38.627Z,77.73
2024-02-11T09:08:37.982Z,77.83
2024-02-11T09:09:38.017Z,77.94
2024-02-11T09:10:38.144Z,77.83
2024-02-11T09:11:38.139Z,77.83
2024-02-11T09:12:38.226Z,78.04
2024-02-11T09:13:39.626Z,77.73
2024-02-11T09:14:38.548Z,77.52
2024-02-11T09:15:38.466Z,77.52
2024-02-11T09:16:38.579Z,77.62
2024-02-11T09:17:38.781Z,77.73
2024-02-11T09:18:38.803Z,77.62
2024-02-11T09:19:38.882Z,77.52
2024-02-11T09:20:38.931Z,77.52
2024-02-11T09:21:39.000Z,77.62
2024-02-11T09:22:39.166Z,77.73
2024-02-11T09:23:39.212Z,77.83
2024-02-11T09:24:39.373Z,77.83
2024-02-11T09:25:39.344Z,78.04
2024-02-11T09:26:39.434Z,78.04
2024-02-11T09:27:39.504Z,78.24
2024-02-11T09:28:39.728Z,78.45
2024-02-11T09:29:39.678Z,78.55
2024-02-11T09:30:39.720Z,78.66
2024-02-11T09:31:39.948Z,78.66
2024-02-11T09:32:39.946Z,78.66
2024-02-11T09:33:40.198Z,78.62
2024-02-11T09:34:40.059Z,78.72
2024-02-11T09:35:40.135Z,78.72
2024-02-11T09:36:40.193Z,78.62
2024-02-11T09:37:40.326Z,78.72
2024-02-11T09:38:40.423Z,78.52
2024-02-11T09:39:40.474Z,78.31
2024-02-11T09:40:40.640Z,78.31
2024-02-11T09:41:40.613Z,78.31
2024-02-11T09:42:40.691Z,78.41
2024-02-11T09:43:40.853Z,78.11
2024-02-11T09:44:40.861Z,78.00
2024-02-11T09:45:40.941Z,78.00
2024-02-11T09:46:41.016Z,78.11
2024-02-11T09:47:41.165Z,78.21
2024-02-11T09:48:41.417Z,78.21
2024-02-11T09:49:41.269Z,78.21
2024-02-11T09:50:41.330Z,78.00
2024-02-11T09:51:41.425Z,78.00
2024-02-11T09:52:41.567Z,77.80
2024-02-11T09:53:41.654Z,77.80
2024-02-11T09:54:41.696Z,77.90
2024-02-11T09:55:41.834Z,77.90
2024-02-11T09:56:41.872Z,78.00
2024-02-11T09:57:41.956Z,77.90
2024-02-11T09:58:42.253Z,77.90
2024-02-11T09:59:42.097Z,77.90
2024-02-11T10:00:42.197Z,77.90
2024-02-11T10:01:42.331Z,77.90
2024-02-11T10:02:42.436Z,77.80
2024-02-11T10:03:42.430Z,77.90
2024-02-11T10:04:42.536Z,77.80
2024-02-11T10:05:42.656Z,77.80
2024-02-11T10:06:42.672Z,77.80
2024-02-11T10:07:42.746Z,77.80
2024-02-11T10:08:42.905Z,77.90
2024-02-11T10:09:42.884Z,77.90
2024-02-11T10:10:43.036Z,77.90
2024-02-11T10:11:43.061Z,77.90
2024-02-11T10:12:43.175Z,77.90
2024-02-11T10:13:43.382Z,77.90
2024-02-11T10:14:43.342Z,77.90
2024-02-11T10:15:43.477Z,77.86
2024-02-11T10:16:43.601Z,77.97
2024-02-11T10:17:43.619Z,77.86
2024-02-11T10:18:43.886Z,77.86
2024-02-11T10:19:43.841Z,77.86
2024-02-11T10:20:43.944Z,77.86
2024-02-11T10:21:43.963Z,77.86
2024-02-11T10:22:44.235Z,77.97
2024-02-11T10:23:44.192Z,78.07
2024-02-11T10:24:44.227Z,78.07
2024-02-11T10:25:44.378Z,78.17
2024-02-11T10:26:44.433Z,78.07
2024-02-11T10:27:44.475Z,77.97
2024-02-11T10:28:44.613Z,77.97
2024-02-11T10:29:44.664Z,77.97
2024-02-11T10:30:44.731Z,77.97
2024-02-11T10:31:44.786Z,77.97
2024-02-11T10:32:45.081Z,77.97
2024-02-11T10:33:45.003Z,77.97
2024-02-11T10:34:45.081Z,77.97
2024-02-11T10:35:45.064Z,77.93
2024-02-11T10:36:45.174Z,77.93
2024-02-11T10:37:45.248Z,78.03
2024-02-11T10:38:45.385Z,78.03
2024-02-11T10:39:45.570Z,77.93
2024-02-11T10:40:45.592Z,77.93
2024-02-11T10:41:45.598Z,77.93
2024-02-11T10:42:45.696Z,77.93
2024-02-11T10:43:47.774Z,77.93
2024-02-11T10:44:45.849Z,77.93
2024-02-11T10:45:45.973Z,77.93
2024-02-11T10:46:46.048Z,77.83
2024-02-11T10:47:46.154Z,77.93
2024-02-11T10:48:46.326Z,77.93
2024-02-11T10:49:46.411Z,77.93
2024-02-11T10:50:46.386Z,78.03
2024-02-11T10:51:46.449Z,78.03
2024-02-11T10:52:46.582Z,78.03
2024-02-11T10:53:46.615Z,78.14
2024-02-11T10:54:46.663Z,78.14
2024-02-11T10:55:47.084Z,78.24
2024-02-11T10:56:46.830Z,78.34
2024-02-11T10:57:46.973Z,78.24
2024-02-11T10:58:47.062Z,78.14
2024-02-11T10:59:47.082Z,78.03
2024-02-11T11:00:47.240Z,77.93
2024-02-11T11:01:47.311Z,78.03
2024-02-11T11:02:47.360Z,78.03
2024-02-11T11:03:47.513Z,78.03
2024-02-11T11:04:47.740Z,78.03
2024-02-11T11:05:47.648Z,78.14
2024-02-11T11:06:47.713Z,78.14
2024-02-11T11:07:47.812Z,78.24
2024-02-11T11:08:47.951Z,78.24
2024-02-11T11:09:47.972Z,78.24
2024-02-11T11:10:48.100Z,78.24
2024-02-11T11:11:48.154Z,78.34
2024-02-11T11:12:48.236Z,78.34
2024-02-11T11:13:48.355Z,78.41
2024-02-11T11:14:48.509Z,78.41
2024-02-11T11:15:48.476Z,78.41
2024-02-11T11:16:48.694Z,78.41
2024-02-11T11:17:48.649Z,78.51
2024-02-11T11:18:48.830Z,78.51
2024-02-11T11:19:48.814Z,78.51
2024-02-11T11:20:48.972Z,78.61
2024-02-11T11:21:48.918Z,78.51
2024-02-11T11:22:49.068Z,78.51
2024-02-11T11:23:49.106Z,78.51
2024-02-11T11:24:49.133Z,78.51
2024-02-11T11:25:49.237Z,78.51
2024-02-11T11:26:49.345Z,78.41
2024-02-11T11:27:49.376Z,78.30
2024-02-11T11:28:49.537Z,78.30
2024-02-11T11:29:49.532Z,78.30
2024-02-11T11:30:49.639Z,78.41
2024-02-11T11:31:49.779Z,78.41
2024-02-11T11:32:49.833Z,78.41
2024-02-11T11:33:49.962Z,78.41
2024-02-11T11:34:49.967Z,78.41
2024-02-11T11:35:50.011Z,78.30
2024-02-11T11:36:50.124Z,78.30
2024-02-11T11:37:50.160Z,78.30
2024-02-11T11:38:50.276Z,78.41
2024-02-11T11:39:50.314Z,78.41
2024-02-11T11:40:50.412Z,78.30
2024-02-11T11:41:50.491Z,78.41
2024-02-11T11:42:50.568Z,78.41
2024-02-11T11:43:50.706Z,78.51
2024-02-11T11:44:50.717Z,78.61
2024-02-11T11:45:50.814Z,78.61
2024-02-11T11:46:50.891Z,78.61
2024-02-11T11:47:51.003Z,78.61
2024-02-11T11:48:51.145Z,78.51
2024-02-11T11:49:51.231Z,78.51
2024-02-11T11:50:51.284Z,78.51
2024-02-11T11:51:51.339Z,78.51
2024-02-11T11:52:51.444Z,78.51
2024-02-11T11:53:51.506Z,78.51
2024-02-11T11:54:51.557Z,78.51
2024-02-11T11:55:51.685Z,78.51
2024-02-11T11:56:51.745Z,78.72
2024-02-11T11:57:51.823Z,78.72
2024-02-11T11:58:51.999Z,78.72
2024-02-11T11:59:52.022Z,78.72
2024-02-11T12:00:52.095Z,78.92
2024-02-11T12:01:52.210Z,78.82
2024-02-11T12:02:52.245Z,78.82
2024-02-11T12:03:52.440Z,78.92
2024-02-11T12:04:52.495Z,79.13
2024-02-11T12:05:52.735Z,79.03
2024-02-11T12:06:52.615Z,79.03
2024-02-11T12:07:52.695Z,79.03
2024-02-11T12:08:52.783Z,79.03
2024-02-11T12:09:52.877Z,79.13
2024-02-11T12:10:52.982Z,79.13
2024-02-11T12:11:53.022Z,79.23
2024-02-11T12:12:53.089Z,79.33
2024-02-11T12:13:53.330Z,79.54
2024-02-11T12:14:53.307Z,79.44
2024-02-11T12:15:53.375Z,79.13
2024-02-11T12:16:53.484Z,79.13
2024-02-11T12:17:53.621Z,79.33
2024-02-11T12:18:53.739Z,79.44
2024-02-11T12:19:53.718Z,79.44
2024-02-11T12:20:53.781Z,79.64
2024-02-11T12:21:53.891Z,79.75
2024-02-11T12:22:53.996Z,79.44
2024-02-11T12:23:54.059Z,79.44
2024-02-11T12:24:54.115Z,79.54
2024-02-11T12:25:54.256Z,79.64
2024-02-11T12:26:54.323Z,79.64
2024-02-11T12:27:54.454Z,79.64
2024-02-11T12:28:54.616Z,79.75
2024-02-11T12:29:54.632Z,79.75
2024-02-11T12:30:54.698Z,79.64
2024-02-11T12:31:54.837Z,79.44
2024-02-11T12:32:54.954Z,79.44
2024-02-11T12:33:55.213Z,79.44
2024-02-11T12:34:55.035Z,79.54
2024-02-11T12:35:56.418Z,79.54
2024-02-11T12:36:55.179Z,79.54
2024-02-11T12:37:55.280Z,79.64
2024-02-11T12:38:55.379Z,79.75
2024-02-11T12:39:55.415Z,79.61
2024-02-11T12:40:55.523Z,79.30
2024-02-11T12:41:55.592Z,79.09
2024-02-11T12:42:55.675Z,79.03
2024-02-11T12:43:56.612Z,78.99
2024-02-11T12:44:55.869Z,78.99
2024-02-11T12:45:55.914Z,78.99
2024-02-11T12:46:56.032Z,78.99
2024-02-11T12:47:56.117Z,78.78
2024-02-11T12:48:56.211Z,78.89
2024-02-11T12:49:56.350Z,79.09
2024-02-11T12:50:56.331Z,79.09
2024-02-11T12:51:56.458Z,78.99
2024-02-11T12:52:56.598Z,78.99
2024-02-11T12:53:56.768Z,78.78